Riverview, Florida
Current Conditions -  °F | °C
As of 2:55 PM on Sunday 23 Nov 2014 (Local Time) from KVDF Reporting Station
Broken Clouds Broken Clouds  
Wind Chill: 86°   Ceiling: 3400
Heat Index: 90°   Visibility: 10mi
Dew Point: 70°   Wind: 18mph
Humidity: 58%   Direction: 200°SSW
Pressure: 29.88"   Gusts: 25mph
Location:  27.87°N, 82.33°W
Report Text: KVDF 231955Z AUTO 20016G22KT 10SM BKN034 BKN044 BKN050 30/21 A2988 RMK AO2
Loading
Personal Weather Stations






























Interactive Weather Map New forecast layout! Learn more

10-Day Weather Forecast

Advertisements
Track Severe Weather on mobile